Olivehurst, California
Current Conditions -  °F | °C
As of 8:58 AM on Friday 28 Nov 2014 (Local Time) from KBAB Reporting Station
Scattered Clouds Scattered Clouds  
Wind Chill: 47°   Ceiling: Unl
Heat Index: 50°   Visibility: 10mi
Dew Point: 43°   Wind: 7mph
Humidity: 79%   Direction: 240°WSW
Pressure: 30.01"   Gusts: NA
Location:  39.1°N, 121.55°W
Report Text: KBAB 281658Z AUTO 24006KT 10SM SCT210 10/06 A3001 RMK AO2 SLP240 T00980063 $
Loading
Personal Weather Stations






























Interactive Weather Map New forecast layout! Learn more

10-Day Weather Forecast

Advertisements
Track Severe Weather on mobile